sensor_id;sensor_type;location;lat;lon;timestamp;P1;durP1;ratioP1;P2;durP2;ratioP2
48809;SDS011;40070;47.322;18.784;2023-05-07T00:00:47;6.44;;;2.92;;
48809;SDS011;40070;47.322;18.784;2023-05-07T00:02:48;6.30;;;3.20;;
48809;SDS011;40070;47.322;18.784;2023-05-07T00:04:49;7.67;;;3.69;;
48809;SDS011;40070;47.322;18.784;2023-05-07T00:06:49;5.27;;;2.82;;
48809;SDS011;40070;47.322;18.784;2023-05-07T00:08:50;5.01;;;2.72;;
48809;SDS011;40070;47.322;18.784;2023-05-07T00:10:51;5.19;;;2.63;;
48809;SDS011;40070;47.322;18.784;2023-05-07T00:12:52;5.71;;;2.82;;
48809;SDS011;40070;47.322;18.784;2023-05-07T00:14:53;5.07;;;2.72;;
48809;SDS011;40070;47.322;18.784;2023-05-07T00:16:54;5.62;;;3.01;;
48809;SDS011;40070;47.322;18.784;2023-05-07T00:18:55;5.54;;;2.92;;
48809;SDS011;40070;47.322;18.784;2023-05-07T00:20:56;5.97;;;2.72;;
48809;SDS011;40070;47.322;18.784;2023-05-07T00:22:57;5.60;;;2.93;;
48809;SDS011;40070;47.322;18.784;2023-05-07T00:24:58;5.85;;;3.12;;
48809;SDS011;40070;47.322;18.784;2023-05-07T00:26:58;5.45;;;3.01;;
48809;SDS011;40070;47.322;18.784;2023-05-07T00:28:59;6.36;;;2.82;;
48809;SDS011;40070;47.322;18.784;2023-05-07T00:31:00;5.01;;;2.53;;
48809;SDS011;40070;47.322;18.784;2023-05-07T00:33:01;5.64;;;3.21;;
48809;SDS011;40070;47.322;18.784;2023-05-07T00:35:02;5.50;;;3.02;;
48809;SDS011;40070;47.322;18.784;2023-05-07T00:37:03;8.19;;;3.02;;
48809;SDS011;40070;47.322;18.784;2023-05-07T00:39:03;6.01;;;3.11;;
48809;SDS011;40070;47.322;18.784;2023-05-07T00:41:04;6.05;;;3.20;;
48809;SDS011;40070;47.322;18.784;2023-05-07T00:43:05;5.43;;;3.01;;
48809;SDS011;40070;47.322;18.784;2023-05-07T00:45:06;5.56;;;3.00;;
48809;SDS011;40070;47.322;18.784;2023-05-07T00:47:07;6.28;;;3.35;;
48809;SDS011;40070;47.322;18.784;2023-05-07T00:49:08;8.39;;;3.26;;
48809;SDS011;40070;47.322;18.784;2023-05-07T00:51:09;5.55;;;2.78;;
48809;SDS011;40070;47.322;18.784;2023-05-07T00:53:10;4.62;;;2.69;;
48809;SDS011;40070;47.322;18.784;2023-05-07T00:55:11;4.53;;;2.60;;
48809;SDS011;40070;47.322;18.784;2023-05-07T00:57:12;5.77;;;2.89;;
48809;SDS011;40070;47.322;18.784;2023-05-07T00:59:13;5.76;;;2.89;;
48809;SDS011;40070;47.322;18.784;2023-05-07T01:01:14;5.25;;;2.80;;
48809;SDS011;40070;47.322;18.784;2023-05-07T01:03:15;5.58;;;3.08;;
48809;SDS011;40070;47.322;18.784;2023-05-07T01:05:16;5.27;;;2.90;;
48809;SDS011;40070;47.322;18.784;2023-05-07T01:07:17;5.10;;;2.80;;
48809;SDS011;40070;47.322;18.784;2023-05-07T01:09:19;5.38;;;2.90;;
48809;SDS011;40070;47.322;18.784;2023-05-07T01:11:19;6.26;;;3.00;;
48809;SDS011;40070;47.322;18.784;2023-05-07T01:13:21;4.08;;;2.33;;
48809;SDS011;40070;47.322;18.784;2023-05-07T01:15:22;4.16;;;2.52;;
48809;SDS011;40070;47.322;18.784;2023-05-07T01:17:24;5.91;;;2.61;;
48809;SDS011;40070;47.322;18.784;2023-05-07T01:19:25;4.75;;;2.73;;
48809;SDS011;40070;47.322;18.784;2023-05-07T01:21:29;5.58;;;3.29;;
48809;SDS011;40070;47.322;18.784;2023-05-07T01:23:31;4.47;;;2.70;;
48809;SDS011;40070;47.322;18.784;2023-05-07T01:25:32;4.48;;;2.51;;
48809;SDS011;40070;47.322;18.784;2023-05-07T01:27:33;5.38;;;2.61;;
48809;SDS011;40070;47.322;18.784;2023-05-07T01:29:34;4.46;;;2.41;;
48809;SDS011;40070;47.322;18.784;2023-05-07T01:31:35;3.61;;;2.03;;
48809;SDS011;40070;47.322;18.784;2023-05-07T01:33:40;4.70;;;2.33;;
48809;SDS011;40070;47.322;18.784;2023-05-07T01:35:43;4.50;;;2.22;;
48809;SDS011;40070;47.322;18.784;2023-05-07T01:37:44;4.14;;;2.13;;
48809;SDS011;40070;47.322;18.784;2023-05-07T01:39:44;4.20;;;2.02;;
48809;SDS011;40070;47.322;18.784;2023-05-07T01:41:46;4.05;;;1.93;;
48809;SDS011;40070;47.322;18.784;2023-05-07T01:43:47;4.37;;;2.33;;
48809;SDS011;40070;47.322;18.784;2023-05-07T01:45:48;4.78;;;2.23;;
48809;SDS011;40070;47.322;18.784;2023-05-07T01:47:49;5.79;;;2.32;;
48809;SDS011;40070;47.322;18.784;2023-05-07T01:49:50;4.17;;;2.31;;
48809;SDS011;40070;47.322;18.784;2023-05-07T01:51:50;4.09;;;2.09;;
48809;SDS011;40070;47.322;18.784;2023-05-07T01:53:51;4.69;;;2.86;;
48809;SDS011;40070;47.322;18.784;2023-05-07T01:55:52;4.53;;;2.41;;
48809;SDS011;40070;47.322;18.784;2023-05-07T01:57:53;3.62;;;2.13;;
48809;SDS011;40070;47.322;18.784;2023-05-07T01:59:54;5.83;;;2.40;;
48809;SDS011;40070;47.322;18.784;2023-05-07T02:01:55;4.19;;;2.00;;
48809;SDS011;40070;47.322;18.784;2023-05-07T02:03:56;4.47;;;2.12;;
48809;SDS011;40070;47.322;18.784;2023-05-07T02:05:57;4.27;;;1.94;;
48809;SDS011;40070;47.322;18.784;2023-05-07T02:07:58;4.94;;;2.14;;
48809;SDS011;40070;47.322;18.784;2023-05-07T02:09:59;3.60;;;2.05;;
48809;SDS011;40070;47.322;18.784;2023-05-07T02:11:59;4.60;;;2.24;;
48809;SDS011;40070;47.322;18.784;2023-05-07T02:14:01;4.67;;;2.44;;
48809;SDS011;40070;47.322;18.784;2023-05-07T02:16:02;4.84;;;2.34;;
48809;SDS011;40070;47.322;18.784;2023-05-07T02:18:04;5.63;;;2.72;;
48809;SDS011;40070;47.322;18.784;2023-05-07T02:20:04;4.27;;;2.04;;
48809;SDS011;40070;47.322;18.784;2023-05-07T02:22:04;5.61;;;2.70;;
48809;SDS011;40070;47.322;18.784;2023-05-07T02:24:05;5.78;;;2.80;;
48809;SDS011;40070;47.322;18.784;2023-05-07T02:26:06;4.13;;;2.03;;
48809;SDS011;40070;47.322;18.784;2023-05-07T02:28:07;4.70;;;2.62;;
48809;SDS011;40070;47.322;18.784;2023-05-07T02:30:08;5.06;;;2.33;;
48809;SDS011;40070;47.322;18.784;2023-05-07T02:32:09;5.16;;;2.62;;
48809;SDS011;40070;47.322;18.784;2023-05-07T02:34:09;3.57;;;2.23;;
48809;SDS011;40070;47.322;18.784;2023-05-07T02:36:11;5.26;;;2.23;;
48809;SDS011;40070;47.322;18.784;2023-05-07T02:38:11;5.26;;;2.23;;
48809;SDS011;40070;47.322;18.784;2023-05-07T02:40:12;4.38;;;2.33;;
48809;SDS011;40070;47.322;18.784;2023-05-07T02:42:13;5.45;;;2.43;;
48809;SDS011;40070;47.322;18.784;2023-05-07T02:44:14;5.34;;;2.23;;
48809;SDS011;40070;47.322;18.784;2023-05-07T02:46:15;4.02;;;2.43;;
48809;SDS011;40070;47.322;18.784;2023-05-07T02:48:16;5.24;;;2.43;;
48809;SDS011;40070;47.322;18.784;2023-05-07T02:50:16;3.58;;;2.14;;
48809;SDS011;40070;47.322;18.784;2023-05-07T02:52:17;4.11;;;2.24;;
48809;SDS011;40070;47.322;18.784;2023-05-07T02:54:18;4.12;;;2.24;;
48809;SDS011;40070;47.322;18.784;2023-05-07T02:56:19;3.77;;;2.04;;
48809;SDS011;40070;47.322;18.784;2023-05-07T02:58:20;4.11;;;2.14;;
48809;SDS011;40070;47.322;18.784;2023-05-07T03:00:21;4.93;;;2.82;;
48809;SDS011;40070;47.322;18.784;2023-05-07T03:02:22;4.12;;;2.04;;
48809;SDS011;40070;47.322;18.784;2023-05-07T03:04:22;5.47;;;2.43;;
48809;SDS011;40070;47.322;18.784;2023-05-07T03:06:23;4.21;;;2.24;;
48809;SDS011;40070;47.322;18.784;2023-05-07T03:08:24;3.76;;;2.24;;
48809;SDS011;40070;47.322;18.784;2023-05-07T03:10:25;4.18;;;2.33;;
48809;SDS011;40070;47.322;18.784;2023-05-07T03:12:27;4.33;;;1.94;;
48809;SDS011;40070;47.322;18.784;2023-05-07T03:14:28;3.87;;;2.13;;
48809;SDS011;40070;47.322;18.784;2023-05-07T03:16:28;3.76;;;1.74;;
48809;SDS011;40070;47.322;18.784;2023-05-07T03:18:29;4.97;;;2.12;;
48809;SDS011;40070;47.322;18.784;2023-05-07T03:20:30;3.82;;;2.11;;
48809;SDS011;40070;47.322;18.784;2023-05-07T03:22:31;4.31;;;2.30;;
48809;SDS011;40070;47.322;18.784;2023-05-07T03:24:32;4.11;;;2.29;;
48809;SDS011;40070;47.322;18.784;2023-05-07T03:26:33;5.04;;;2.58;;
48809;SDS011;40070;47.322;18.784;2023-05-07T03:28:34;4.95;;;2.19;;
48809;SDS011;40070;47.322;18.784;2023-05-07T03:30:35;4.47;;;2.27;;
48809;SDS011;40070;47.322;18.784;2023-05-07T03:32:36;7.81;;;2.85;;
48809;SDS011;40070;47.322;18.784;2023-05-07T03:34:37;4.84;;;2.57;;
48809;SDS011;40070;47.322;18.784;2023-05-07T03:36:38;5.03;;;2.29;;
48809;SDS011;40070;47.322;18.784;2023-05-07T03:38:39;4.89;;;2.77;;
48809;SDS011;40070;47.322;18.784;2023-05-07T03:40:40;4.51;;;2.28;;
48809;SDS011;40070;47.322;18.784;2023-05-07T03:42:41;4.73;;;2.68;;
48809;SDS011;40070;47.322;18.784;2023-05-07T03:44:42;4.44;;;2.29;;
48809;SDS011;40070;47.322;18.784;2023-05-07T03:46:43;4.37;;;2.48;;
48809;SDS011;40070;47.322;18.784;2023-05-07T03:48:43;5.42;;;2.78;;
48809;SDS011;40070;47.322;18.784;2023-05-07T03:50:44;4.73;;;2.58;;
48809;SDS011;40070;47.322;18.784;2023-05-07T03:52:45;6.05;;;2.95;;
48809;SDS011;40070;47.322;18.784;2023-05-07T03:54:46;6.40;;;3.53;;
48809;SDS011;40070;47.322;18.784;2023-05-07T03:56:47;5.97;;;3.05;;
48809;SDS011;40070;47.322;18.784;2023-05-07T03:58:48;4.35;;;2.67;;
48809;SDS011;40070;47.322;18.784;2023-05-07T04:00:49;6.41;;;2.77;;
48809;SDS011;40070;47.322;18.784;2023-05-07T04:02:50;6.03;;;2.78;;
48809;SDS011;40070;47.322;18.784;2023-05-07T04:04:51;6.45;;;2.79;;
48809;SDS011;40070;47.322;18.784;2023-05-07T04:06:51;6.56;;;2.99;;
48809;SDS011;40070;47.322;18.784;2023-05-07T04:08:52;5.71;;;2.90;;
48809;SDS011;40070;47.322;18.784;2023-05-07T04:10:56;6.01;;;2.79;;
48809;SDS011;40070;47.322;18.784;2023-05-07T04:12:54;4.88;;;2.89;;
48809;SDS011;40070;47.322;18.784;2023-05-07T04:14:55;5.67;;;3.27;;
48809;SDS011;40070;47.322;18.784;2023-05-07T04:16:56;7.51;;;3.08;;
48809;SDS011;40070;47.322;18.784;2023-05-07T04:18:57;5.05;;;2.79;;
48809;SDS011;40070;47.322;18.784;2023-05-07T04:20:58;5.58;;;2.89;;
48809;SDS011;40070;47.322;18.784;2023-05-07T04:22:58;5.77;;;3.18;;
48809;SDS011;40070;47.322;18.784;2023-05-07T04:25:02;6.26;;;3.17;;
48809;SDS011;40070;47.322;18.784;2023-05-07T04:27:03;4.96;;;2.69;;
48809;SDS011;40070;47.322;18.784;2023-05-07T04:29:04;6.41;;;3.30;;
48809;SDS011;40070;47.322;18.784;2023-05-07T04:31:04;5.06;;;3.01;;
48809;SDS011;40070;47.322;18.784;2023-05-07T04:33:05;5.65;;;3.10;;
48809;SDS011;40070;47.322;18.784;2023-05-07T04:35:06;6.05;;;2.43;;
48809;SDS011;40070;47.322;18.784;2023-05-07T04:37:08;6.46;;;3.58;;
48809;SDS011;40070;47.322;18.784;2023-05-07T04:39:09;5.25;;;3.28;;
48809;SDS011;40070;47.322;18.784;2023-05-07T04:41:12;6.49;;;3.09;;
48809;SDS011;40070;47.322;18.784;2023-05-07T04:43:11;5.32;;;3.47;;
48809;SDS011;40070;47.322;18.784;2023-05-07T04:45:12;6.86;;;3.75;;
48809;SDS011;40070;47.322;18.784;2023-05-07T04:47:13;6.27;;;3.27;;
48809;SDS011;40070;47.322;18.784;2023-05-07T04:49:13;6.57;;;3.28;;
48809;SDS011;40070;47.322;18.784;2023-05-07T04:51:14;6.14;;;3.76;;
48809;SDS011;40070;47.322;18.784;2023-05-07T04:53:16;6.50;;;3.57;;
48809;SDS011;40070;47.322;18.784;2023-05-07T04:55:16;6.48;;;3.38;;
48809;SDS011;40070;47.322;18.784;2023-05-07T04:57:17;5.76;;;2.98;;
48809;SDS011;40070;47.322;18.784;2023-05-07T04:59:18;7.51;;;3.85;;
48809;SDS011;40070;47.322;18.784;2023-05-07T05:01:19;5.92;;;3.46;;
48809;SDS011;40070;47.322;18.784;2023-05-07T05:03:20;6.37;;;3.47;;
48809;SDS011;40070;47.322;18.784;2023-05-07T05:05:20;6.55;;;3.76;;
48809;SDS011;40070;47.322;18.784;2023-05-07T05:07:21;5.68;;;3.27;;
48809;SDS011;40070;47.322;18.784;2023-05-07T05:09:22;6.84;;;3.96;;
48809;SDS011;40070;47.322;18.784;2023-05-07T05:11:23;6.72;;;3.58;;
48809;SDS011;40070;47.322;18.784;2023-05-07T05:13:24;7.06;;;4.16;;
48809;SDS011;40070;47.322;18.784;2023-05-07T05:15:25;6.59;;;3.96;;
48809;SDS011;40070;47.322;18.784;2023-05-07T05:17:26;7.60;;;3.56;;
48809;SDS011;40070;47.322;18.784;2023-05-07T05:19:27;6.36;;;3.58;;
48809;SDS011;40070;47.322;18.784;2023-05-07T05:21:27;6.39;;;3.59;;
48809;SDS011;40070;47.322;18.784;2023-05-07T05:23:28;6.06;;;3.88;;
48809;SDS011;40070;47.322;18.784;2023-05-07T05:25:29;7.39;;;3.98;;
48809;SDS011;40070;47.322;18.784;2023-05-07T05:27:30;6.97;;;4.06;;
48809;SDS011;40070;47.322;18.784;2023-05-07T05:29:31;5.66;;;3.29;;
48809;SDS011;40070;47.322;18.784;2023-05-07T05:31:32;6.24;;;3.09;;
48809;SDS011;40070;47.322;18.784;2023-05-07T05:33:33;6.25;;;3.28;;
48809;SDS011;40070;47.322;18.784;2023-05-07T05:35:34;6.37;;;3.39;;
48809;SDS011;40070;47.322;18.784;2023-05-07T05:37:35;6.16;;;3.01;;
48809;SDS011;40070;47.322;18.784;2023-05-07T05:39:35;5.59;;;2.93;;
48809;SDS011;40070;47.322;18.784;2023-05-07T05:41:36;5.79;;;3.42;;
48809;SDS011;40070;47.322;18.784;2023-05-07T05:43:37;5.52;;;3.32;;
48809;SDS011;40070;47.322;18.784;2023-05-07T05:45:39;5.70;;;3.32;;
48809;SDS011;40070;47.322;18.784;2023-05-07T05:47:40;5.17;;;2.74;;
48809;SDS011;40070;47.322;18.784;2023-05-07T05:49:40;5.70;;;2.83;;
48809;SDS011;40070;47.322;18.784;2023-05-07T05:51:41;5.21;;;3.21;;
48809;SDS011;40070;47.322;18.784;2023-05-07T05:53:42;5.24;;;2.93;;
48809;SDS011;40070;47.322;18.784;2023-05-07T05:55:43;5.40;;;3.51;;
48809;SDS011;40070;47.322;18.784;2023-05-07T05:57:44;6.34;;;3.32;;
48809;SDS011;40070;47.322;18.784;2023-05-07T05:59:45;5.76;;;3.43;;
48809;SDS011;40070;47.322;18.784;2023-05-07T06:01:46;5.91;;;2.94;;
48809;SDS011;40070;47.322;18.784;2023-05-07T06:03:46;6.45;;;3.52;;
48809;SDS011;40070;47.322;18.784;2023-05-07T06:05:47;7.01;;;3.03;;
48809;SDS011;40070;47.322;18.784;2023-05-07T06:07:48;7.41;;;3.24;;
48809;SDS011;40070;47.322;18.784;2023-05-07T06:09:49;5.22;;;3.04;;
48809;SDS011;40070;47.322;18.784;2023-05-07T06:11:50;4.97;;;3.14;;
48809;SDS011;40070;47.322;18.784;2023-05-07T06:13:51;8.22;;;3.54;;
48809;SDS011;40070;47.322;18.784;2023-05-07T06:15:52;5.55;;;3.05;;
48809;SDS011;40070;47.322;18.784;2023-05-07T06:17:53;5.64;;;2.75;;
48809;SDS011;40070;47.322;18.784;2023-05-07T06:19:54;5.30;;;3.06;;
48809;SDS011;40070;47.322;18.784;2023-05-07T06:21:55;5.03;;;2.76;;
48809;SDS011;40070;47.322;18.784;2023-05-07T06:23:55;5.21;;;3.06;;
48809;SDS011;40070;47.322;18.784;2023-05-07T06:25:56;5.03;;;2.86;;
48809;SDS011;40070;47.322;18.784;2023-05-07T06:27:57;5.45;;;3.05;;
48809;SDS011;40070;47.322;18.784;2023-05-07T06:29:58;5.81;;;2.95;;
48809;SDS011;40070;47.322;18.784;2023-05-07T06:32:09;5.45;;;3.06;;
48809;SDS011;40070;47.322;18.784;2023-05-07T06:34:01;6.04;;;3.07;;
48809;SDS011;40070;47.322;18.784;2023-05-07T06:36:02;5.13;;;2.78;;
48809;SDS011;40070;47.322;18.784;2023-05-07T06:38:03;5.34;;;2.68;;
48809;SDS011;40070;47.322;18.784;2023-05-07T06:40:05;5.92;;;2.98;;
48809;SDS011;40070;47.322;18.784;2023-05-07T06:42:05;6.77;;;2.88;;
48809;SDS011;40070;47.322;18.784;2023-05-07T06:44:06;5.18;;;2.88;;
48809;SDS011;40070;47.322;18.784;2023-05-07T06:46:07;6.64;;;3.28;;
48809;SDS011;40070;47.322;18.784;2023-05-07T06:48:08;5.67;;;2.88;;
48809;SDS011;40070;47.322;18.784;2023-05-07T06:50:09;4.79;;;2.48;;
48809;SDS011;40070;47.322;18.784;2023-05-07T06:52:10;5.91;;;3.08;;
48809;SDS011;40070;47.322;18.784;2023-05-07T06:54:11;4.91;;;2.57;;
48809;SDS011;40070;47.322;18.784;2023-05-07T06:56:12;5.62;;;2.48;;
48809;SDS011;40070;47.322;18.784;2023-05-07T06:58:13;6.00;;;2.58;;
48809;SDS011;40070;47.322;18.784;2023-05-07T07:00:14;4.46;;;2.38;;
48809;SDS011;40070;47.322;18.784;2023-05-07T07:02:14;4.71;;;2.67;;
48809;SDS011;40070;47.322;18.784;2023-05-07T07:04:15;5.73;;;2.77;;
48809;SDS011;40070;47.322;18.784;2023-05-07T07:06:16;5.47;;;2.47;;
48809;SDS011;40070;47.322;18.784;2023-05-07T07:08:17;4.65;;;2.18;;
48809;SDS011;40070;47.322;18.784;2023-05-07T07:10:21;4.49;;;2.28;;
48809;SDS011;40070;47.322;18.784;2023-05-07T07:12:19;4.50;;;2.38;;
48809;SDS011;40070;47.322;18.784;2023-05-07T07:14:19;5.45;;;2.48;;
48809;SDS011;40070;47.322;18.784;2023-05-07T07:16:21;5.26;;;2.58;;
48809;SDS011;40070;47.322;18.784;2023-05-07T07:18:21;4.56;;;2.48;;
48809;SDS011;40070;47.322;18.784;2023-05-07T07:20:22;5.76;;;2.67;;
48809;SDS011;40070;47.322;18.784;2023-05-07T07:22:23;5.35;;;2.77;;
48809;SDS011;40070;47.322;18.784;2023-05-07T07:24:24;5.08;;;2.97;;
48809;SDS011;40070;47.322;18.784;2023-05-07T07:26:25;5.92;;;2.67;;
48809;SDS011;40070;47.322;18.784;2023-05-07T07:28:26;6.68;;;2.77;;
48809;SDS011;40070;47.322;18.784;2023-05-07T07:30:27;4.52;;;2.28;;
48809;SDS011;40070;47.322;18.784;2023-05-07T07:32:28;5.67;;;2.66;;
48809;SDS011;40070;47.322;18.784;2023-05-07T07:34:29;6.05;;;3.16;;
48809;SDS011;40070;47.322;18.784;2023-05-07T07:36:29;5.61;;;2.67;;
48809;SDS011;40070;47.322;18.784;2023-05-07T07:38:30;5.30;;;2.96;;
48809;SDS011;40070;47.322;18.784;2023-05-07T07:40:31;6.03;;;3.05;;
48809;SDS011;40070;47.322;18.784;2023-05-07T07:42:32;5.44;;;2.65;;
48809;SDS011;40070;47.322;18.784;2023-05-07T07:44:34;5.64;;;2.95;;
48809;SDS011;40070;47.322;18.784;2023-05-07T07:46:35;6.15;;;3.16;;
48809;SDS011;40070;47.322;18.784;2023-05-07T07:48:36;5.85;;;2.96;;
48809;SDS011;40070;47.322;18.784;2023-05-07T07:50:37;5.82;;;2.87;;
48809;SDS011;40070;47.322;18.784;2023-05-07T07:52:38;6.37;;;3.07;;
48809;SDS011;40070;47.322;18.784;2023-05-07T07:54:39;7.88;;;2.97;;
48809;SDS011;40070;47.322;18.784;2023-05-07T07:56:40;4.64;;;2.48;;
48809;SDS011;40070;47.322;18.784;2023-05-07T07:58:40;5.69;;;2.68;;
48809;SDS011;40070;47.322;18.784;2023-05-07T08:00:42;5.59;;;1.98;;
48809;SDS011;40070;47.322;18.784;2023-05-07T08:02:43;4.34;;;2.28;;
48809;SDS011;40070;47.322;18.784;2023-05-07T08:04:43;4.42;;;2.27;;
48809;SDS011;40070;47.322;18.784;2023-05-07T08:06:44;4.06;;;2.08;;
48809;SDS011;40070;47.322;18.784;2023-05-07T08:08:45;4.07;;;2.18;;
48809;SDS011;40070;47.322;18.784;2023-05-07T08:10:46;4.89;;;2.37;;
48809;SDS011;40070;47.322;18.784;2023-05-07T08:12:48;5.16;;;2.57;;
48809;SDS011;40070;47.322;18.784;2023-05-07T08:14:48;5.01;;;2.48;;
48809;SDS011;40070;47.322;18.784;2023-05-07T08:16:49;5.01;;;2.38;;
48809;SDS011;40070;47.322;18.784;2023-05-07T08:18:50;4.73;;;1.98;;
48809;SDS011;40070;47.322;18.784;2023-05-07T08:20:51;3.81;;;1.98;;
48809;SDS011;40070;47.322;18.784;2023-05-07T08:22:51;5.22;;;2.08;;
48809;SDS011;40070;47.322;18.784;2023-05-07T08:24:52;4.18;;;1.88;;
48809;SDS011;40070;47.322;18.784;2023-05-07T08:26:53;5.62;;;2.08;;
48809;SDS011;40070;47.322;18.784;2023-05-07T08:28:54;4.50;;;1.89;;
48809;SDS011;40070;47.322;18.784;2023-05-07T08:30:55;4.12;;;1.79;;
48809;SDS011;40070;47.322;18.784;2023-05-07T08:32:56;4.02;;;1.89;;
48809;SDS011;40070;47.322;18.784;2023-05-07T08:34:57;3.95;;;1.79;;
48809;SDS011;40070;47.322;18.784;2023-05-07T08:36:57;3.76;;;1.49;;
48809;SDS011;40070;47.322;18.784;2023-05-07T08:38:59;3.47;;;1.49;;
48809;SDS011;40070;47.322;18.784;2023-05-07T08:40:59;3.08;;;1.49;;
48809;SDS011;40070;47.322;18.784;2023-05-07T08:43:02;3.76;;;1.89;;
48809;SDS011;40070;47.322;18.784;2023-05-07T08:45:05;5.21;;;2.09;;
48809;SDS011;40070;47.322;18.784;2023-05-07T08:47:06;3.27;;;1.69;;
48809;SDS011;40070;47.322;18.784;2023-05-07T08:49:06;5.46;;;1.59;;
48809;SDS011;40070;47.322;18.784;2023-05-07T08:51:08;4.13;;;1.69;;
48809;SDS011;40070;47.322;18.784;2023-05-07T08:53:09;3.83;;;1.69;;
48809;SDS011;40070;47.322;18.784;2023-05-07T08:55:11;4.80;;;2.09;;
48809;SDS011;40070;47.322;18.784;2023-05-07T08:57:12;3.64;;;1.69;;
48809;SDS011;40070;47.322;18.784;2023-05-07T08:59:15;4.14;;;1.59;;
48809;SDS011;40070;47.322;18.784;2023-05-07T09:01:17;3.95;;;1.69;;
48809;SDS011;40070;47.322;18.784;2023-05-07T09:03:18;4.23;;;1.49;;
48809;SDS011;40070;47.322;18.784;2023-05-07T09:05:20;3.55;;;1.39;;
48809;SDS011;40070;47.322;18.784;2023-05-07T09:07:20;3.47;;;1.49;;
48809;SDS011;40070;47.322;18.784;2023-05-07T09:09:22;3.85;;;1.69;;
48809;SDS011;40070;47.322;18.784;2023-05-07T09:11:23;4.02;;;1.79;;
48809;SDS011;40070;47.322;18.784;2023-05-07T09:13:24;4.50;;;1.69;;
48809;SDS011;40070;47.322;18.784;2023-05-07T09:15:25;3.25;;;1.59;;
48809;SDS011;40070;47.322;18.784;2023-05-07T09:17:25;5.26;;;1.59;;
48809;SDS011;40070;47.322;18.784;2023-05-07T09:19:28;4.79;;;1.79;;
48809;SDS011;40070;47.322;18.784;2023-05-07T09:21:29;2.89;;;1.29;;
48809;SDS011;40070;47.322;18.784;2023-05-07T09:23:29;3.78;;;1.59;;
48809;SDS011;40070;47.322;18.784;2023-05-07T09:25:31;3.76;;;1.59;;
48809;SDS011;40070;47.322;18.784;2023-05-07T09:27:32;3.19;;;1.49;;
48809;SDS011;40070;47.322;18.784;2023-05-07T09:29:32;3.50;;;1.40;;
48809;SDS011;40070;47.322;18.784;2023-05-07T09:31:36;3.40;;;1.20;;
48809;SDS011;40070;47.322;18.784;2023-05-07T09:33:34;3.40;;;1.59;;
48809;SDS011;40070;47.322;18.784;2023-05-07T09:35:37;3.30;;;1.69;;
48809;SDS011;40070;47.322;18.784;2023-05-07T09:37:36;4.44;;;1.79;;
48809;SDS011;40070;47.322;18.784;2023-05-07T09:39:44;3.19;;;1.39;;
48809;SDS011;40070;47.322;18.784;2023-05-07T09:41:43;3.48;;;1.49;;
48809;SDS011;40070;47.322;18.784;2023-05-07T09:43:44;5.00;;;1.89;;
48809;SDS011;40070;47.322;18.784;2023-05-07T09:45:45;4.80;;;1.89;;
48809;SDS011;40070;47.322;18.784;2023-05-07T09:47:49;4.49;;;2.08;;
48809;SDS011;40070;47.322;18.784;2023-05-07T09:49:55;5.63;;;2.18;;
48809;SDS011;40070;47.322;18.784;2023-05-07T09:52:04;4.01;;;1.99;;
48809;SDS011;40070;47.322;18.784;2023-05-07T09:54:04;4.13;;;1.59;;
48809;SDS011;40070;47.322;18.784;2023-05-07T09:56:05;4.88;;;1.89;;
48809;SDS011;40070;47.322;18.784;2023-05-07T09:58:07;3.64;;;1.79;;
48809;SDS011;40070;47.322;18.784;2023-05-07T10:00:08;3.54;;;1.69;;
48809;SDS011;40070;47.322;18.784;2023-05-07T10:02:09;4.97;;;1.89;;
48809;SDS011;40070;47.322;18.784;2023-05-07T10:04:14;3.34;;;1.69;;
48809;SDS011;40070;47.322;18.784;2023-05-07T10:06:15;3.62;;;1.69;;
48809;SDS011;40070;47.322;18.784;2023-05-07T10:08:17;4.01;;;1.79;;
48809;SDS011;40070;47.322;18.784;2023-05-07T10:10:18;5.64;;;2.38;;
48809;SDS011;40070;47.322;18.784;2023-05-07T10:12:20;4.87;;;1.99;;
48809;SDS011;40070;47.322;18.784;2023-05-07T10:14:21;6.46;;;2.08;;
48809;SDS011;40070;47.322;18.784;2023-05-07T10:16:22;6.77;;;2.48;;
48809;SDS011;40070;47.322;18.784;2023-05-07T10:18:25;5.71;;;2.18;;
48809;SDS011;40070;47.322;18.784;2023-05-07T10:20:25;6.18;;;2.58;;
48809;SDS011;40070;47.322;18.784;2023-05-07T10:22:27;3.91;;;2.18;;
48809;SDS011;40070;47.322;18.784;2023-05-07T10:24:36;4.40;;;1.99;;
48809;SDS011;40070;47.322;18.784;2023-05-07T10:26:37;6.32;;;2.58;;
48809;SDS011;40070;47.322;18.784;2023-05-07T10:28:40;5.35;;;2.38;;
48809;SDS011;40070;47.322;18.784;2023-05-07T10:33:11;7.21;;;3.28;;
48809;SDS011;40070;47.322;18.784;2023-05-07T10:35:21;5.23;;;2.49;;
48809;SDS011;40070;47.322;18.784;2023-05-07T10:37:15;5.21;;;2.59;;
48809;SDS011;40070;47.322;18.784;2023-05-07T10:39:16;5.88;;;3.08;;
48809;SDS011;40070;47.322;18.784;2023-05-07T10:41:17;5.77;;;3.08;;
48809;SDS011;40070;47.322;18.784;2023-05-07T10:43:25;5.31;;;2.79;;
48809;SDS011;40070;47.322;18.784;2023-05-07T10:45:26;5.10;;;2.49;;
48809;SDS011;40070;47.322;18.784;2023-05-07T10:50:19;5.91;;;2.99;;
48809;SDS011;40070;47.322;18.784;2023-05-07T10:52:16;6.31;;;2.99;;
48809;SDS011;40070;47.322;18.784;2023-05-07T10:58:26;6.06;;;3.09;;
48809;SDS011;40070;47.322;18.784;2023-05-07T11:02:35;4.92;;;2.30;;
48809;SDS011;40070;47.322;18.784;2023-05-07T11:04:44;4.13;;;2.00;;
48809;SDS011;40070;47.322;18.784;2023-05-07T11:07:28;4.35;;;2.00;;
48809;SDS011;40070;47.322;18.784;2023-05-07T11:08:53;5.14;;;2.10;;
48809;SDS011;40070;47.322;18.784;2023-05-07T11:10:57;3.66;;;1.90;;
48809;SDS011;40070;47.322;18.784;2023-05-07T11:13:00;5.53;;;2.80;;
48809;SDS011;40070;47.322;18.784;2023-05-07T11:15:33;5.14;;;2.60;;
48809;SDS011;40070;47.322;18.784;2023-05-07T11:17:17;4.84;;;1.90;;
48809;SDS011;40070;47.322;18.784;2023-05-07T11:19:58;4.36;;;1.80;;
48809;SDS011;40070;47.322;18.784;2023-05-07T11:21:40;3.37;;;1.60;;
48809;SDS011;40070;47.322;18.784;2023-05-07T11:25:33;4.56;;;1.90;;
48809;SDS011;40070;47.322;18.784;2023-05-07T11:27:35;3.28;;;1.50;;
48809;SDS011;40070;47.322;18.784;2023-05-07T11:29:41;3.28;;;1.40;;
48809;SDS011;40070;47.322;18.784;2023-05-07T11:31:42;3.48;;;1.60;;
48809;SDS011;40070;47.322;18.784;2023-05-07T11:33:43;3.68;;;1.70;;
48809;SDS011;40070;47.322;18.784;2023-05-07T11:35:45;3.97;;;1.80;;
48809;SDS011;40070;47.322;18.784;2023-05-07T11:37:48;4.07;;;1.80;;
48809;SDS011;40070;47.322;18.784;2023-05-07T11:40:06;3.87;;;1.80;;
48809;SDS011;40070;47.322;18.784;2023-05-07T11:42:07;4.47;;;2.00;;
48809;SDS011;40070;47.322;18.784;2023-05-07T11:44:08;3.97;;;1.70;;
48809;SDS011;40070;47.322;18.784;2023-05-07T11:46:10;3.57;;;1.70;;
48809;SDS011;40070;47.322;18.784;2023-05-07T11:48:13;3.38;;;1.50;;
48809;SDS011;40070;47.322;18.784;2023-05-07T11:50:13;4.18;;;1.70;;
48809;SDS011;40070;47.322;18.784;2023-05-07T11:52:14;3.18;;;1.50;;
48809;SDS011;40070;47.322;18.784;2023-05-07T11:54:15;3.68;;;1.80;;
48809;SDS011;40070;47.322;18.784;2023-05-07T11:56:16;3.88;;;1.40;;
48809;SDS011;40070;47.322;18.784;2023-05-07T11:58:20;4.68;;;1.50;;
48809;SDS011;40070;47.322;18.784;2023-05-07T12:00:18;3.28;;;1.30;;
48809;SDS011;40070;47.322;18.784;2023-05-07T12:02:19;3.09;;;1.40;;
48809;SDS011;40070;47.322;18.784;2023-05-07T12:04:20;2.79;;;1.20;;
48809;SDS011;40070;47.322;18.784;2023-05-07T12:06:21;3.09;;;1.40;;
48809;SDS011;40070;47.322;18.784;2023-05-07T12:08:26;4.18;;;1.50;;
48809;SDS011;40070;47.322;18.784;2023-05-07T12:10:27;2.99;;;1.30;;
48809;SDS011;40070;47.322;18.784;2023-05-07T12:12:28;3.48;;;1.50;;